createdAt,value
2023-01-13T00:04:37.564Z,72.98
2023-01-13T00:09:37.590Z,73.04
2023-01-13T00:14:37.646Z,73.01
2023-01-13T00:19:37.779Z,73.02
2023-01-13T00:24:37.469Z,72.95
2023-01-13T00:29:37.663Z,73.03
2023-01-13T00:34:37.704Z,73.20
2023-01-13T00:39:37.817Z,73.44
2023-01-13T00:44:37.484Z,74.05
2023-01-13T00:49:37.642Z,74.02
2023-01-13T00:54:37.441Z,74.21
2023-01-13T00:59:37.534Z,74.23
2023-01-13T01:04:37.887Z,74.85
2023-01-13T01:09:38.471Z,75.47
2023-01-13T01:14:37.458Z,76.93
2023-01-13T01:19:37.857Z,78.39
2023-01-13T01:24:37.701Z,78.24
2023-01-13T01:29:37.616Z,78.43
2023-01-13T01:34:38.243Z,78.13
2023-01-13T01:39:37.737Z,77.81
2023-01-13T01:44:52.538Z,77.63
2023-01-13T01:49:38.956Z,77.29
2023-01-13T01:54:42.643Z,78.08
2023-01-13T01:59:38.499Z,78.10
2023-01-13T02:04:40.072Z,78.09
2023-01-13T02:09:37.526Z,78.85
2023-01-13T02:14:38.721Z,78.58
2023-01-13T02:19:57.266Z,78.63
2023-01-13T02:24:57.199Z,78.50
2023-01-13T02:30:05.805Z,79.16
2023-01-13T02:34:41.986Z,78.94
2023-01-13T02:39:44.155Z,78.94
2023-01-13T02:44:43.177Z,78.89
2023-01-13T02:49:43.434Z,79.69
2023-01-13T02:54:42.612Z,81.15
2023-01-13T02:59:39.939Z,81.41
2023-01-13T03:04:48.525Z,81.24
2023-01-13T03:09:43.345Z,80.94
2023-01-13T03:14:45.138Z,80.72
2023-01-13T03:19:43.142Z,80.25
2023-01-13T03:24:41.837Z,80.16
2023-01-13T03:29:41.276Z,80.23
2023-01-13T03:34:45.087Z,79.94
2023-01-13T03:39:42.653Z,80.53
2023-01-13T03:44:43.451Z,80.78
2023-01-13T03:49:43.924Z,80.88
2023-01-13T03:54:44.250Z,80.88
2023-01-13T03:59:42.123Z,80.68
2023-01-13T04:04:42.931Z,80.87
2023-01-13T04:09:48.787Z,82.25
2023-01-13T04:14:38.382Z,83.24
2023-01-13T04:19:37.673Z,84.72
2023-01-13T04:24:37.294Z,84.86
2023-01-13T04:29:37.427Z,85.56
2023-01-13T04:34:38.330Z,85.00
2023-01-13T04:39:37.383Z,84.55
2023-01-13T04:44:37.542Z,84.35
2023-01-13T04:49:38.516Z,84.84
2023-01-13T04:54:37.500Z,84.92
2023-01-13T04:59:37.458Z,84.74
2023-01-13T05:04:37.594Z,85.09
2023-01-13T05:09:37.253Z,85.02
2023-01-13T05:14:47.269Z,85.18
2023-01-13T05:19:38.199Z,84.93
2023-01-13T05:24:47.512Z,84.45
2023-01-13T05:29:37.274Z,84.54
2023-01-13T05:34:37.676Z,85.49
2023-01-13T05:39:47.199Z,85.39
2023-01-13T05:44:37.254Z,85.70
2023-01-13T05:49:37.457Z,85.51
2023-01-13T05:54:37.235Z,86.30
2023-01-13T05:59:37.381Z,86.76
2023-01-13T06:04:37.951Z,87.22
2023-01-13T06:09:37.343Z,87.32
2023-01-13T06:14:39.089Z,87.61
2023-01-13T06:19:37.989Z,88.19
2023-01-13T06:24:37.311Z,87.82
2023-01-13T06:29:37.447Z,87.43
2023-01-13T06:34:39.181Z,88.09
2023-01-13T06:39:37.281Z,88.32
2023-01-13T06:44:38.704Z,88.03
2023-01-13T06:49:37.491Z,88.31
2023-01-13T06:54:37.292Z,88.07
2023-01-13T06:59:37.436Z,87.74
2023-01-13T07:04:37.547Z,87.93
2023-01-13T07:09:37.180Z,87.58
2023-01-13T07:14:47.126Z,87.49
2023-01-13T07:19:37.371Z,87.30
2023-01-13T07:24:37.722Z,87.31
2023-01-13T07:29:37.148Z,87.21
2023-01-13T07:34:37.577Z,87.14
2023-01-13T07:39:37.214Z,87.15
2023-01-13T07:44:37.399Z,87.33
2023-01-13T07:49:37.481Z,87.23
2023-01-13T07:54:41.073Z,87.21
2023-01-13T07:59:37.228Z,87.11
2023-01-13T08:04:37.791Z,87.32
2023-01-13T08:09:37.115Z,87.20
2023-01-13T08:14:37.152Z,87.23
2023-01-13T08:19:37.594Z,87.40
2023-01-13T08:24:37.175Z,87.06
2023-01-13T08:29:37.179Z,86.80
2023-01-13T08:34:37.447Z,86.81
2023-01-13T08:39:37.102Z,86.79
2023-01-13T08:44:37.165Z,86.75
2023-01-13T08:49:37.730Z,86.92
2023-01-13T08:54:38.019Z,86.90
2023-01-13T08:59:37.194Z,86.88
2023-01-13T09:04:38.277Z,86.68
2023-01-13T09:09:37.638Z,86.20
2023-01-13T09:14:38.089Z,85.59
2023-01-13T09:19:37.500Z,85.16
2023-01-13T09:24:34.346Z,84.87
2023-01-13T09:24:36.813Z,84.87
2023-01-13T09:29:37.406Z,84.29
2023-01-13T09:34:49.335Z,83.95
2023-01-13T09:39:37.127Z,83.65
2023-01-13T09:44:45.312Z,83.19
2023-01-13T09:49:40.340Z,82.55
2023-01-13T09:54:41.974Z,82.06
2023-01-13T09:56:58.355Z,82.06
2023-01-13T09:59:38.268Z,81.70
2023-01-13T10:04:37.476Z,81.57
2023-01-13T10:09:47.422Z,81.31
2023-01-13T10:14:41.298Z,80.94
2023-01-13T10:19:43.302Z,80.52
2023-01-13T10:24:56.951Z,79.94
2023-01-13T10:29:37.209Z,79.61
2023-01-13T10:34:46.260Z,79.26
2023-01-13T10:39:40.043Z,79.21
2023-01-13T10:44:46.285Z,78.50
2023-01-13T10:49:37.698Z,78.21
2023-01-13T10:54:50.356Z,78.12
2023-01-13T10:59:36.991Z,78.04
2023-01-13T11:04:39.815Z,77.40
2023-01-13T11:09:37.025Z,77.21
2023-01-13T11:14:40.835Z,76.53
2023-01-13T11:19:41.210Z,76.24
2023-01-13T11:24:43.918Z,75.99
2023-01-13T11:29:42.026Z,76.20
2023-01-13T11:34:40.635Z,75.56
2023-01-13T11:39:46.798Z,75.03
2023-01-13T11:44:44.105Z,74.90
2023-01-13T11:49:37.672Z,74.40
2023-01-13T11:54:48.845Z,74.31
2023-01-13T11:59:49.932Z,74.26
2023-01-13T12:04:42.925Z,74.36
2023-01-13T12:09:47.073Z,74.37
2023-01-13T12:14:49.817Z,74.39
2023-01-13T12:19:37.964Z,74.12
2023-01-13T12:24:43.382Z,73.76
2023-01-13T12:29:38.169Z,74.11
2023-01-13T12:34:49.231Z,73.96
2023-01-13T12:39:43.528Z,74.27
2023-01-13T12:44:37.263Z,74.30
2023-01-13T12:49:37.231Z,74.43
2023-01-13T12:54:56.870Z,74.90
2023-01-13T12:59:36.938Z,74.99
2023-01-13T13:04:43.371Z,74.70
2023-01-13T13:09:42.772Z,74.47
2023-01-13T13:14:56.922Z,73.99
2023-01-13T13:19:41.681Z,73.79
2023-01-13T13:24:38.933Z,73.92
2023-01-13T13:29:45.691Z,74.01
2023-01-13T13:34:44.497Z,73.87
2023-01-13T13:39:51.182Z,73.71
2023-01-13T13:44:49.633Z,74.18
2023-01-13T13:49:40.614Z,74.09
2023-01-13T13:54:40.560Z,74.34
2023-01-13T13:56:16.070Z,74.34
2023-01-13T13:59:38.727Z,74.50
2023-01-13T14:04:38.123Z,74.39
2023-01-13T14:09:43.217Z,74.27
2023-01-13T14:14:41.782Z,74.32
2023-01-13T14:19:41.496Z,74.30
2023-01-13T14:24:45.627Z,74.32
2023-01-13T14:29:37.061Z,74.57
2023-01-13T14:34:37.945Z,74.73
2023-01-13T14:39:39.747Z,75.08
2023-01-13T14:44:41.976Z,75.26
2023-01-13T14:49:39.389Z,75.34
2023-01-13T14:54:42.234Z,75.36
2023-01-13T14:59:50.590Z,75.37
2023-01-13T15:04:37.250Z,75.28
2023-01-13T15:09:40.626Z,75.02
2023-01-13T15:14:36.762Z,75.02
2023-01-13T15:19:36.843Z,75.20
2023-01-13T15:24:36.995Z,75.14
2023-01-13T15:29:36.771Z,74.99
2023-01-13T15:34:37.045Z,74.80
2023-01-13T15:39:37.254Z,74.80
2023-01-13T15:44:46.837Z,74.92
2023-01-13T15:49:41.284Z,74.77
2023-01-13T15:54:36.976Z,75.03
2023-01-13T15:59:36.717Z,75.28
2023-01-13T16:04:36.922Z,75.34
2023-01-13T16:09:37.095Z,75.12
2023-01-13T16:14:37.263Z,74.98
2023-01-13T16:19:36.686Z,74.74
2023-01-13T16:24:36.938Z,75.08
2023-01-13T16:29:36.760Z,75.45
2023-01-13T16:34:36.882Z,75.52
2023-01-13T16:39:36.986Z,75.40
2023-01-13T16:44:36.816Z,75.39
2023-01-13T16:49:36.828Z,75.34
2023-01-13T16:54:36.988Z,75.70
2023-01-13T16:59:36.725Z,75.86
2023-01-13T17:04:36.877Z,75.49
2023-01-13T17:09:36.904Z,75.52
2023-01-13T17:14:36.734Z,75.67
2023-01-13T17:19:36.808Z,76.05
2023-01-13T17:24:37.133Z,76.18
2023-01-13T17:29:37.730Z,76.13
2023-01-13T17:34:39.308Z,75.96
2023-01-13T17:39:36.976Z,75.88
2023-01-13T17:44:37.516Z,75.64
2023-01-13T17:49:36.683Z,75.47
2023-01-13T17:54:38.925Z,75.48
2023-01-13T17:59:36.842Z,75.58
2023-01-13T18:04:36.756Z,76.61
2023-01-13T18:09:37.247Z,77.46
2023-01-13T18:14:36.727Z,78.51
2023-01-13T18:19:46.719Z,78.78
2023-01-13T18:24:46.892Z,79.32
2023-01-13T18:29:36.682Z,79.87
2023-01-13T18:34:37.635Z,80.98
2023-01-13T18:39:37.169Z,82.02
2023-01-13T18:44:36.720Z,82.40
2023-01-13T18:49:36.746Z,82.28
2023-01-13T18:54:36.867Z,82.51
2023-01-13T18:59:36.756Z,82.66
2023-01-13T19:04:36.800Z,82.66
2023-01-13T19:09:37.647Z,82.78
2023-01-13T19:14:36.717Z,83.22
2023-01-13T19:19:37.618Z,83.17
2023-01-13T19:24:36.829Z,83.09
2023-01-13T19:29:36.979Z,83.27
2023-01-13T19:34:36.950Z,82.96
2023-01-13T19:39:37.191Z,83.14
2023-01-13T19:44:46.559Z,83.05
2023-01-13T19:49:37.976Z,82.80
2023-01-13T19:54:37.064Z,82.85
2023-01-13T19:59:39.896Z,82.63
2023-01-13T20:04:37.534Z,82.46
2023-01-13T20:09:40.007Z,82.17
2023-01-13T20:19:36.751Z,81.24
2023-01-13T20:24:36.793Z,81.00
2023-01-13T20:29:37.040Z,80.61
2023-01-13T20:34:36.577Z,80.42
2023-01-13T20:39:36.989Z,80.30
2023-01-13T20:44:36.831Z,80.08
2023-01-13T20:49:36.714Z,79.85
2023-01-13T20:54:37.956Z,79.74
2023-01-13T20:59:37.647Z,79.67
2023-01-13T21:04:36.618Z,79.52
2023-01-13T21:09:37.157Z,79.43
2023-01-13T21:14:47.080Z,79.40
2023-01-13T21:19:36.555Z,79.47
2023-01-13T21:24:37.148Z,79.62
2023-01-13T21:29:36.689Z,79.78
2023-01-13T21:34:36.652Z,79.84
2023-01-13T21:39:37.089Z,79.97
2023-01-13T21:44:48.481Z,79.98
2023-01-13T21:49:42.971Z,80.01
2023-01-13T21:54:46.920Z,80.01
2023-01-13T21:59:36.538Z,79.92
2023-01-13T22:04:36.563Z,79.95
2023-01-13T22:09:36.908Z,80.02
2023-01-13T22:14:37.187Z,79.93
2023-01-13T22:19:41.195Z,79.83
2023-01-13T22:24:42.086Z,79.88
2023-01-13T22:29:37.763Z,79.85
2023-01-13T22:34:36.631Z,79.88
2023-01-13T22:39:37.080Z,79.91
2023-01-13T22:44:36.585Z,79.92
2023-01-13T22:49:36.748Z,79.78
2023-01-13T22:54:36.877Z,79.66
2023-01-13T22:59:36.732Z,79.48
2023-01-13T23:04:36.781Z,79.28
2023-01-13T23:09:40.872Z,79.31
2023-01-13T23:14:36.453Z,78.96
2023-01-13T23:19:36.579Z,78.87
2023-01-13T23:24:37.156Z,78.91
2023-01-13T23:29:36.913Z,79.04
2023-01-13T23:34:36.657Z,79.04
2023-01-13T23:39:36.721Z,79.16
2023-01-13T23:44:36.521Z,79.19
2023-01-13T23:49:36.727Z,79.33
2023-01-13T23:54:37.003Z,79.45
2023-01-13T23:59:36.440Z,79.25
